createdAt,value
2022-08-22T00:00:13.314Z,39.40
2022-08-22T00:00:53.810Z,28.92
2022-08-22T00:01:39.960Z,41.42
2022-08-22T00:02:24.186Z,43.50
2022-08-22T00:02:43.198Z,47.65
2022-08-22T00:02:43.552Z,56.55
2022-08-22T00:02:45.173Z,67.32
2022-08-22T00:02:47.468Z,110.20
2022-08-22T00:02:55.135Z,44.85
2022-08-22T00:02:59.391Z,30.35
2022-08-22T00:02:59.809Z,59.08
2022-08-22T00:03:04.186Z,74.28
2022-08-22T00:03:04.349Z,69.30
2022-08-22T00:03:10.963Z,53.08
2022-08-22T00:03:12.457Z,53.20
2022-08-22T00:03:15.453Z,60.30
2022-08-22T00:03:22.753Z,45.78
2022-08-22T00:04:06.992Z,32.60
2022-08-22T00:04:45.570Z,37.75
2022-08-22T00:05:28.810Z,37.17
2022-08-22T00:06:13.496Z,20.17
2022-08-22T00:06:52.530Z,55.05
2022-08-22T00:07:46.377Z,44.17
2022-08-22T00:08:26.766Z,35.97
2022-08-22T00:09:51.017Z,45.67
2022-08-22T00:10:28.063Z,45.42
2022-08-22T00:11:12.521Z,45.63
2022-08-22T00:11:50.402Z,41.13
2022-08-22T00:12:31.975Z,39.20
2022-08-22T00:13:11.006Z,48.83
2022-08-22T00:14:01.936Z,50.75
2022-08-22T00:14:40.489Z,46.72
2022-08-22T00:15:42.383Z,41.90
2022-08-22T00:16:21.165Z,44.10
2022-08-22T00:17:08.048Z,38.70
2022-08-22T00:17:47.474Z,36.47
2022-08-22T00:18:29.818Z,32.80
2022-08-22T00:19:12.305Z,40.10
2022-08-22T00:19:52.165Z,37.53
2022-08-22T00:20:29.175Z,26.38
2022-08-22T00:21:12.363Z,37.92
2022-08-22T00:21:51.609Z,36.75
2022-08-22T00:22:30.393Z,42.90
2022-08-22T00:23:12.309Z,46.35
2022-08-22T00:23:52.702Z,42.17
2022-08-22T00:25:25.587Z,44.20
2022-08-22T00:26:03.084Z,38.30
2022-08-22T00:26:46.602Z,32.58
2022-08-22T00:27:23.757Z,48.55
2022-08-22T00:28:03.555Z,55.17
2022-08-22T00:28:43.386Z,38.67
2022-08-22T00:29:18.670Z,40.38
2022-08-22T00:29:57.348Z,34.75
2022-08-22T00:30:37.989Z,40.42
2022-08-22T00:31:54.862Z,44.55
2022-08-22T00:32:36.311Z,39.90
2022-08-22T00:33:18.543Z,31.70
2022-08-22T00:33:56.607Z,36.97
2022-08-22T00:34:40.130Z,26.20
2022-08-22T00:35:32.513Z,39.28
2022-08-22T00:36:18.966Z,28.45
2022-08-22T00:36:56.846Z,45.88
2022-08-22T00:37:37.773Z,36.30
2022-08-22T00:38:16.474Z,52.53
2022-08-22T00:38:59.284Z,53.38
2022-08-22T00:39:38.774Z,60.72
2022-08-22T00:40:29.958Z,39.20
2022-08-22T00:41:07.622Z,27.83
2022-08-22T00:42:10.151Z,36.58
2022-08-22T00:42:59.971Z,30.02
2022-08-22T00:44:07.488Z,39.47
2022-08-22T00:45:03.186Z,48.45
2022-08-22T00:46:05.100Z,51.78
2022-08-22T00:47:03.828Z,40.33
2022-08-22T00:47:57.103Z,62.25
2022-08-22T00:49:04.919Z,37.13
2022-08-22T00:49:55.549Z,44.40
2022-08-22T00:50:52.040Z,45.15
2022-08-22T00:51:47.490Z,40.13
2022-08-22T00:52:44.454Z,54.15
2022-08-22T00:53:46.538Z,35.78
2022-08-22T00:54:30.605Z,39.83
2022-08-22T00:55:17.567Z,59.70
2022-08-22T00:56:09.544Z,47.25
2022-08-22T00:57:05.798Z,28.40
2022-08-22T00:58:03.944Z,29.30
2022-08-22T00:59:23.785Z,31.63
2022-08-22T01:00:09.572Z,34.25
2022-08-22T01:00:49.277Z,34.15
2022-08-22T01:01:30.345Z,41.67
2022-08-22T01:02:15.678Z,35.83
2022-08-22T01:03:13.228Z,41.20
2022-08-22T01:04:11.454Z,44.20
2022-08-22T01:05:19.133Z,31.15
2022-08-22T01:06:08.343Z,39.50
2022-08-22T01:06:52.659Z,37.25
2022-08-22T01:07:53.833Z,34.83
2022-08-22T01:08:45.581Z,32.83
2022-08-22T01:09:34.319Z,39.60
2022-08-22T01:10:32.361Z,35.22
2022-08-22T01:11:29.992Z,36.22
2022-08-22T01:12:26.669Z,26.42
2022-08-22T01:13:18.018Z,55.92
2022-08-22T01:14:15.742Z,48.25
2022-08-22T01:14:55.111Z,24.00
2022-08-22T01:15:30.874Z,42.42
2022-08-22T01:16:13.666Z,33.80
2022-08-22T01:17:08.174Z,55.85
2022-08-22T01:18:08.019Z,72.88
2022-08-22T01:19:09.210Z,47.13
2022-08-22T01:20:28.223Z,92.00
2022-08-22T01:21:44.666Z,57.30
2022-08-22T01:22:41.673Z,35.88
2022-08-22T01:23:56.463Z,62.05
2022-08-22T01:25:11.098Z,89.47
2022-08-22T01:26:20.382Z,47.70
2022-08-22T01:27:27.966Z,35.25
2022-08-22T01:28:33.690Z,51.40
2022-08-22T01:29:47.775Z,40.60
2022-08-22T01:30:42.113Z,26.90
2022-08-22T01:31:51.818Z,61.40
2022-08-22T01:33:01.767Z,58.17
2022-08-22T01:34:04.298Z,42.35
2022-08-22T01:35:01.705Z,32.60
2022-08-22T01:36:16.177Z,28.00
2022-08-22T01:37:18.596Z,56.65
2022-08-22T01:38:10.085Z,58.97
2022-08-22T01:38:59.353Z,49.30
2022-08-22T01:40:09.972Z,31.83
2022-08-22T01:41:12.047Z,32.95
2022-08-22T01:42:22.228Z,31.10
2022-08-22T01:43:09.441Z,45.65
2022-08-22T01:44:01.014Z,28.88
2022-08-22T01:45:02.941Z,38.20
2022-08-22T01:45:48.431Z,31.65
2022-08-22T01:46:34.114Z,56.17
2022-08-22T01:47:12.273Z,44.75
2022-08-22T01:47:56.265Z,27.35
2022-08-22T01:48:37.982Z,34.10
2022-08-22T01:49:18.236Z,40.95
2022-08-22T01:50:02.115Z,43.03
2022-08-22T01:50:39.747Z,33.70
2022-08-22T01:51:21.230Z,69.30
2022-08-22T01:52:02.834Z,38.42
2022-08-22T01:52:44.572Z,33.97
2022-08-22T01:53:24.343Z,45.30
2022-08-22T01:54:05.762Z,33.45
2022-08-22T01:54:51.912Z,39.80
2022-08-22T01:55:33.691Z,32.25
2022-08-22T01:56:13.002Z,27.35
2022-08-22T01:56:47.143Z,41.63
2022-08-22T01:57:19.741Z,37.00
2022-08-22T01:57:58.909Z,29.60
2022-08-22T01:58:37.301Z,29.92
2022-08-22T01:59:12.647Z,36.42
2022-08-22T01:59:50.689Z,28.80
2022-08-22T02:00:35.544Z,62.63
2022-08-22T02:01:24.215Z,36.85
2022-08-22T02:02:05.820Z,32.40
2022-08-22T02:02:57.074Z,29.85
2022-08-22T02:03:36.441Z,57.00
2022-08-22T02:04:14.872Z,29.65
2022-08-22T02:05:01.508Z,27.65
2022-08-22T02:05:42.612Z,34.70
2022-08-22T02:06:32.484Z,30.15
2022-08-22T02:07:14.553Z,40.03
2022-08-22T02:07:53.429Z,35.58
2022-08-22T02:08:33.042Z,37.85
2022-08-22T02:09:14.827Z,39.72
2022-08-22T02:10:01.372Z,33.15
2022-08-22T02:10:51.646Z,28.70
2022-08-22T02:11:43.972Z,59.70
2022-08-22T02:12:33.013Z,62.92
2022-08-22T02:13:19.881Z,38.90
2022-08-22T02:14:01.570Z,30.58
2022-08-22T02:14:44.155Z,64.10
2022-08-22T02:15:23.017Z,49.22
2022-08-22T02:16:09.495Z,24.05
2022-08-22T02:16:44.345Z,41.80
2022-08-22T02:17:23.638Z,67.57
2022-08-22T02:18:13.002Z,53.92
2022-08-22T02:18:54.493Z,41.45
2022-08-22T02:19:35.899Z,52.72
2022-08-22T02:20:23.617Z,41.78
2022-08-22T02:21:05.414Z,36.80
2022-08-22T02:21:45.533Z,47.05
2022-08-22T02:22:32.358Z,47.47
2022-08-22T02:23:17.904Z,34.75
2022-08-22T02:23:56.194Z,34.35
2022-08-22T02:24:50.313Z,24.92
2022-08-22T02:25:26.527Z,37.53
2022-08-22T02:26:10.215Z,41.53
2022-08-22T02:26:50.142Z,44.28
2022-08-22T02:27:33.318Z,31.52
2022-08-22T02:28:13.490Z,31.80
2022-08-22T02:28:58.038Z,29.85
2022-08-22T02:29:35.914Z,37.28
2022-08-22T02:30:14.993Z,47.47
2022-08-22T02:30:52.278Z,62.15
2022-08-22T02:31:35.495Z,36.70
2022-08-22T02:32:21.666Z,38.33
2022-08-22T02:33:03.256Z,39.65
2022-08-22T02:33:47.817Z,47.28
2022-08-22T02:34:39.864Z,40.20
2022-08-22T02:35:24.373Z,26.40
2022-08-22T02:36:05.097Z,48.03
2022-08-22T02:36:46.918Z,26.38
2022-08-22T02:37:34.735Z,35.67
2022-08-22T02:38:24.257Z,29.52
2022-08-22T02:39:06.549Z,25.80
2022-08-22T02:39:44.653Z,31.80
2022-08-22T02:40:31.254Z,35.80
2022-08-22T02:41:14.426Z,38.78
2022-08-22T02:41:53.393Z,42.25
2022-08-22T02:42:38.229Z,54.38
2022-08-22T02:43:19.277Z,38.03
2022-08-22T02:43:57.066Z,32.15
2022-08-22T02:44:37.895Z,37.50
2022-08-22T02:45:21.299Z,42.10
2022-08-22T02:46:03.613Z,51.92
2022-08-22T02:46:49.694Z,38.95
2022-08-22T02:47:32.168Z,36.50
2022-08-22T02:48:14.335Z,31.60
2022-08-22T02:49:11.856Z,43.42
2022-08-22T02:49:53.689Z,35.92
2022-08-22T02:50:41.055Z,41.03
2022-08-22T02:51:19.627Z,27.23
2022-08-22T02:52:02.302Z,43.33
2022-08-22T02:52:45.808Z,43.15
2022-08-22T02:53:22.250Z,39.17
2022-08-22T02:54:17.108Z,46.85
2022-08-22T02:54:56.588Z,36.40
2022-08-22T02:55:42.532Z,43.30
2022-08-22T02:56:24.543Z,33.28
2022-08-22T02:57:03.493Z,59.22
2022-08-22T02:57:40.627Z,29.15
2022-08-22T02:58:25.975Z,70.10
2022-08-22T02:59:13.693Z,37.35
2022-08-22T03:00:31.290Z,35.95
2022-08-22T03:01:24.253Z,47.03
2022-08-22T03:01:57.018Z,44.60
2022-08-22T03:02:36.579Z,27.77
2022-08-22T03:03:20.194Z,45.67
2022-08-22T03:04:18.101Z,40.60
2022-08-22T03:04:55.785Z,28.42
2022-08-22T03:05:41.799Z,42.00
2022-08-22T03:06:36.786Z,34.92
2022-08-22T03:07:16.843Z,31.40
2022-08-22T03:07:59.813Z,25.30
2022-08-22T03:08:35.647Z,51.72
2022-08-22T03:09:25.024Z,37.55
2022-08-22T03:10:08.952Z,35.88
2022-08-22T03:10:45.862Z,33.10
2022-08-22T03:11:24.127Z,22.73
2022-08-22T03:12:08.375Z,35.13
2022-08-22T03:12:48.261Z,41.58
2022-08-22T03:13:38.159Z,35.20
2022-08-22T03:14:16.222Z,29.33
2022-08-22T03:15:01.045Z,35.72
2022-08-22T03:15:48.455Z,33.08
2022-08-22T03:16:28.855Z,29.35
2022-08-22T03:17:06.458Z,36.00
2022-08-22T03:17:50.781Z,41.95
2022-08-22T03:18:35.245Z,52.72
2022-08-22T03:19:30.382Z,43.22
2022-08-22T03:20:10.086Z,45.45
2022-08-22T03:20:48.987Z,42.85
2022-08-22T03:21:32.337Z,37.17
2022-08-22T03:22:12.516Z,120.55
2022-08-22T03:22:49.227Z,29.58
2022-08-22T03:23:37.156Z,62.35
2022-08-22T03:24:14.297Z,43.47
2022-08-22T03:24:52.911Z,34.15
2022-08-22T03:25:38.185Z,48.25
2022-08-22T03:26:17.496Z,46.88
2022-08-22T03:26:52.497Z,28.83
2022-08-22T03:27:32.576Z,33.50
2022-08-22T03:28:12.013Z,46.60
2022-08-22T03:28:58.941Z,41.72
2022-08-22T03:29:36.903Z,40.85
2022-08-22T03:30:19.335Z,44.55
2022-08-22T03:31:08.315Z,42.58
2022-08-22T03:32:08.457Z,29.10
2022-08-22T03:32:54.770Z,40.05
2022-08-22T03:33:32.533Z,38.53
2022-08-22T03:34:21.470Z,59.80
2022-08-22T03:35:02.049Z,26.70
2022-08-22T03:35:51.465Z,33.45
2022-08-22T03:36:33.271Z,36.72
2022-08-22T03:37:15.682Z,33.17
2022-08-22T03:37:53.752Z,51.42
2022-08-22T03:38:30.789Z,34.13
2022-08-22T03:39:17.330Z,27.63
2022-08-22T03:40:02.872Z,30.77
2022-08-22T03:40:49.819Z,58.63
2022-08-22T03:41:52.671Z,42.17
2022-08-22T03:43:04.169Z,28.38
2022-08-22T03:44:00.941Z,40.50
2022-08-22T03:45:15.791Z,37.45
2022-08-22T03:46:18.446Z,46.50
2022-08-22T03:47:07.747Z,46.13
2022-08-22T03:48:15.915Z,66.78
2022-08-22T03:49:31.660Z,83.75
2022-08-22T03:50:42.445Z,44.97
2022-08-22T03:52:15.613Z,36.15
2022-08-22T03:53:31.106Z,47.15
2022-08-22T03:54:35.475Z,51.17
2022-08-22T03:55:21.171Z,60.22
2022-08-22T03:56:40.787Z,68.93
2022-08-22T03:57:43.627Z,59.78
2022-08-22T03:58:47.162Z,53.28
2022-08-22T03:59:51.545Z,54.25
2022-08-22T04:00:56.007Z,69.25
2022-08-22T04:02:03.717Z,59.95
2022-08-22T04:03:29.222Z,41.92
2022-08-22T04:04:34.585Z,55.05
2022-08-22T04:05:48.003Z,53.15
2022-08-22T04:06:56.558Z,66.78
2022-08-22T04:08:04.323Z,53.72
2022-08-22T04:09:06.250Z,49.08
2022-08-22T04:10:18.763Z,53.80
2022-08-22T04:11:04.361Z,56.50
2022-08-22T04:12:10.648Z,66.53
2022-08-22T04:12:56.111Z,64.07
2022-08-22T04:13:52.887Z,63.33
2022-08-22T04:14:42.049Z,75.90
2022-08-22T04:15:39.645Z,68.07
2022-08-22T04:16:40.138Z,46.05
2022-08-22T04:17:33.465Z,59.22
2022-08-22T04:18:44.448Z,51.03
2022-08-22T04:19:39.193Z,54.97
2022-08-22T04:20:47.079Z,63.90
2022-08-22T04:21:42.247Z,64.03
2022-08-22T04:22:39.405Z,82.45
2022-08-22T04:23:42.344Z,94.00
2022-08-22T04:24:34.328Z,49.00
2022-08-22T04:25:18.295Z,94.30
2022-08-22T04:25:55.747Z,76.13
2022-08-22T04:26:41.633Z,50.10
2022-08-22T04:27:23.839Z,59.47
2022-08-22T04:28:06.392Z,62.78
2022-08-22T04:28:46.528Z,45.20
2022-08-22T04:29:23.393Z,43.05
2022-08-22T04:30:02.248Z,80.05
2022-08-22T04:30:42.833Z,53.08
2022-08-22T04:31:19.153Z,44.88
2022-08-22T04:31:57.741Z,60.55
2022-08-22T04:32:38.988Z,63.55
2022-08-22T04:33:17.892Z,54.72
2022-08-22T04:33:54.371Z,61.85
2022-08-22T04:34:34.743Z,53.47
2022-08-22T04:35:54.247Z,54.60
2022-08-22T04:36:35.179Z,83.82
2022-08-22T04:37:14.728Z,90.38
2022-08-22T04:37:56.479Z,80.60
2022-08-22T04:38:34.097Z,78.57
2022-08-22T04:39:13.173Z,94.47
2022-08-22T04:39:54.134Z,63.47
2022-08-22T04:40:34.745Z,117.63
2022-08-22T04:41:12.522Z,86.32
2022-08-22T04:41:52.933Z,59.78
2022-08-22T04:43:19.965Z,82.57
2022-08-22T04:44:00.562Z,66.00
2022-08-22T04:44:39.431Z,76.93
2022-08-22T04:45:20.085Z,124.97
2022-08-22T04:45:59.144Z,67.40
2022-08-22T04:46:37.327Z,60.38
2022-08-22T04:47:21.562Z,34.78
2022-08-22T04:48:02.744Z,81.00
2022-08-22T04:48:41.678Z,79.35
2022-08-22T04:49:27.195Z,70.05
2022-08-22T04:50:06.295Z,45.88
2022-08-22T04:50:44.155Z,60.28
2022-08-22T04:51:27.517Z,47.25
2022-08-22T04:52:09.633Z,50.30
2022-08-22T04:52:56.605Z,69.53
2022-08-22T04:53:55.102Z,77.93
2022-08-22T04:54:41.414Z,89.68
2022-08-22T04:55:25.449Z,70.47
2022-08-22T04:56:08.023Z,65.15
2022-08-22T04:56:57.803Z,57.65
2022-08-22T04:57:38.579Z,45.70
2022-08-22T04:58:27.275Z,55.58
2022-08-22T04:59:03.786Z,72.28
2022-08-22T04:59:39.444Z,55.45
2022-08-22T05:00:13.773Z,97.13
2022-08-22T05:00:54.511Z,82.57
2022-08-22T05:01:44.606Z,95.47
2022-08-22T05:02:22.779Z,56.60
2022-08-22T05:02:58.191Z,63.25
2022-08-22T05:03:36.000Z,54.83
2022-08-22T05:04:10.898Z,57.40
2022-08-22T05:04:50.317Z,62.88
2022-08-22T05:05:27.273Z,48.55
2022-08-22T05:06:03.619Z,74.22
2022-08-22T05:06:45.002Z,70.07
2022-08-22T05:07:21.271Z,99.10
2022-08-22T05:07:58.589Z,86.25
2022-08-22T05:08:37.306Z,74.72
2022-08-22T05:09:16.556Z,80.75
2022-08-22T05:09:54.061Z,69.82
2022-08-22T05:10:31.930Z,72.28
2022-08-22T05:11:10.680Z,60.08
2022-08-22T05:11:43.642Z,78.57
2022-08-22T05:12:23.786Z,69.60
2022-08-22T05:13:02.890Z,61.55
2022-08-22T05:13:39.963Z,52.90
2022-08-22T05:14:20.948Z,60.60
2022-08-22T05:14:58.451Z,58.08
2022-08-22T05:15:34.431Z,74.07
2022-08-22T05:16:15.220Z,75.97
2022-08-22T05:16:52.154Z,87.45
2022-08-22T05:17:28.011Z,82.55
2022-08-22T05:18:08.482Z,80.30
2022-08-22T05:18:45.516Z,64.88
2022-08-22T05:19:29.680Z,105.53
2022-08-22T05:20:11.744Z,99.00
2022-08-22T05:20:49.249Z,73.32
2022-08-22T05:21:31.516Z,78.10
2022-08-22T05:22:06.374Z,88.68
2022-08-22T05:22:43.443Z,68.53
2022-08-22T05:23:24.647Z,41.35
2022-08-22T05:24:01.924Z,93.00
2022-08-22T05:24:38.796Z,80.00
2022-08-22T05:25:16.641Z,103.93
2022-08-22T05:25:53.151Z,66.68
2022-08-22T05:26:34.622Z,45.67
2022-08-22T05:27:49.709Z,56.13
2022-08-22T05:28:33.952Z,75.78
2022-08-22T05:29:10.891Z,47.42
2022-08-22T05:29:47.353Z,54.70
2022-08-22T05:30:23.985Z,43.90
2022-08-22T05:30:59.686Z,56.97
2022-08-22T05:31:35.280Z,42.22
2022-08-22T05:32:22.093Z,76.25
2022-08-22T05:33:04.239Z,82.35
2022-08-22T05:33:41.820Z,104.00
2022-08-22T05:34:20.863Z,114.82
2022-08-22T05:34:58.522Z,61.05
2022-08-22T05:35:37.764Z,72.38
2022-08-22T05:36:16.447Z,41.33
2022-08-22T05:36:54.518Z,50.63
2022-08-22T05:37:37.569Z,55.47
2022-08-22T05:38:17.072Z,73.50
2022-08-22T05:38:54.827Z,60.65
2022-08-22T05:39:31.229Z,50.92
2022-08-22T05:40:04.750Z,70.05
2022-08-22T05:40:38.005Z,56.28
2022-08-22T05:41:20.249Z,47.88
2022-08-22T05:41:57.088Z,57.47
2022-08-22T05:42:37.589Z,61.13
2022-08-22T05:43:12.197Z,75.35
2022-08-22T05:43:45.938Z,85.78
2022-08-22T05:44:23.496Z,58.25
2022-08-22T05:44:56.186Z,50.08
2022-08-22T05:45:29.560Z,92.38
2022-08-22T05:46:09.984Z,64.13
2022-08-22T05:46:44.779Z,93.22
2022-08-22T05:47:22.798Z,64.35
2022-08-22T05:48:06.012Z,93.18
2022-08-22T05:48:43.644Z,55.65
2022-08-22T05:49:19.578Z,52.63
2022-08-22T05:50:02.254Z,117.50
2022-08-22T05:50:39.884Z,69.63
2022-08-22T05:51:21.699Z,88.78
2022-08-22T05:52:05.566Z,97.22
2022-08-22T05:53:00.954Z,72.00
2022-08-22T05:53:38.023Z,58.00
2022-08-22T05:54:20.606Z,53.15
2022-08-22T05:54:57.469Z,70.10
2022-08-22T05:55:32.944Z,52.20
2022-08-22T05:56:13.547Z,96.53
2022-08-22T05:56:51.593Z,41.38
2022-08-22T05:57:32.810Z,62.20
2022-08-22T05:58:29.389Z,36.45
2022-08-22T05:59:08.587Z,100.07
2022-08-22T05:59:47.875Z,73.40
2022-08-22T06:00:22.742Z,89.07
2022-08-22T06:01:00.867Z,52.08
2022-08-22T06:01:40.425Z,123.40
2022-08-22T06:02:20.465Z,85.40
2022-08-22T06:03:04.948Z,57.58
2022-08-22T06:03:41.534Z,46.58
2022-08-22T06:04:23.874Z,59.72
2022-08-22T06:05:02.011Z,91.15
2022-08-22T06:05:40.333Z,78.22
2022-08-22T06:06:19.284Z,74.13
2022-08-22T06:06:56.656Z,67.22
2022-08-22T06:07:37.126Z,70.22
2022-08-22T06:08:20.478Z,103.90
2022-08-22T06:08:59.260Z,54.63
2022-08-22T06:09:37.518Z,61.40
2022-08-22T06:10:23.099Z,82.30
2022-08-22T06:11:00.290Z,93.18
2022-08-22T06:11:40.087Z,60.83
2022-08-22T06:12:21.811Z,58.95
2022-08-22T06:13:05.739Z,48.50
2022-08-22T06:13:52.192Z,42.55
2022-08-22T06:14:34.463Z,61.63
2022-08-22T06:15:15.317Z,58.30
2022-08-22T06:15:55.282Z,64.18
2022-08-22T06:16:40.719Z,90.63
2022-08-22T06:17:25.573Z,79.45
2022-08-22T06:18:05.309Z,70.72
2022-08-22T06:18:40.646Z,49.92
2022-08-22T06:19:19.819Z,56.42
2022-08-22T06:19:57.199Z,47.75
2022-08-22T06:20:33.778Z,58.42
2022-08-22T06:21:10.927Z,55.00
2022-08-22T06:21:48.282Z,57.05
2022-08-22T06:22:24.392Z,77.10
2022-08-22T06:23:03.770Z,78.40
2022-08-22T06:23:50.838Z,76.38
2022-08-22T06:24:27.976Z,77.10
2022-08-22T06:25:12.903Z,61.75
2022-08-22T06:25:50.534Z,106.75
2022-08-22T06:26:24.890Z,57.70
2022-08-22T06:27:04.659Z,86.13
2022-08-22T06:27:40.021Z,84.47
2022-08-22T06:28:22.900Z,76.43
2022-08-22T06:28:59.940Z,94.05
2022-08-22T06:29:39.101Z,83.78
2022-08-22T06:30:14.758Z,66.95
2022-08-22T06:30:49.626Z,96.45
2022-08-22T06:31:31.592Z,54.17
2022-08-22T06:32:11.676Z,51.83
2022-08-22T06:32:59.482Z,69.63
2022-08-22T06:33:38.601Z,61.30
2022-08-22T06:34:13.649Z,51.30
2022-08-22T06:34:50.180Z,52.60
2022-08-22T06:35:28.266Z,92.68
2022-08-22T06:36:20.522Z,54.30
2022-08-22T06:36:59.576Z,43.72
2022-08-22T06:37:39.575Z,45.72
2022-08-22T06:38:12.460Z,58.60
2022-08-22T06:38:59.082Z,90.90
2022-08-22T06:39:34.466Z,165.15
2022-08-22T06:40:13.699Z,92.20
2022-08-22T06:40:46.105Z,59.50
2022-08-22T06:41:22.261Z,52.50
2022-08-22T06:42:02.991Z,82.18
2022-08-22T06:42:41.116Z,84.85
2022-08-22T06:43:19.455Z,118.70
2022-08-22T06:43:53.399Z,90.20
2022-08-22T06:44:30.595Z,95.05
2022-08-22T06:45:11.374Z,60.90
2022-08-22T06:45:43.804Z,100.00
2022-08-22T06:46:16.992Z,61.83
2022-08-22T06:46:55.595Z,55.15
2022-08-22T06:47:31.355Z,69.38
2022-08-22T06:48:18.302Z,57.33
2022-08-22T06:48:51.487Z,113.47
2022-08-22T06:49:29.554Z,96.65
2022-08-22T06:50:06.330Z,58.47
2022-08-22T06:50:49.233Z,86.70
2022-08-22T06:51:27.799Z,60.15
2022-08-22T06:52:02.459Z,84.75
2022-08-22T06:52:42.799Z,121.32
2022-08-22T06:53:53.901Z,121.68
2022-08-22T06:54:34.509Z,80.07
2022-08-22T06:55:09.633Z,87.90
2022-08-22T06:55:47.823Z,97.15
2022-08-22T06:56:26.003Z,89.53
2022-08-22T06:56:59.119Z,108.60
2022-08-22T06:57:42.029Z,74.15
2022-08-22T06:58:20.820Z,59.80
2022-08-22T06:58:57.518Z,126.90
2022-08-22T06:59:35.434Z,47.47
2022-08-22T07:00:13.492Z,77.72
2022-08-22T07:00:56.289Z,74.30
2022-08-22T07:01:50.768Z,71.22
2022-08-22T07:02:31.024Z,78.47
2022-08-22T07:03:10.270Z,124.53
2022-08-22T07:03:49.227Z,85.95
2022-08-22T07:04:26.642Z,63.97
2022-08-22T07:04:59.430Z,128.38
2022-08-22T07:05:39.822Z,93.22
2022-08-22T07:06:16.226Z,98.78
2022-08-22T07:06:50.803Z,116.72
2022-08-22T07:07:29.530Z,93.93
2022-08-22T07:08:07.128Z,89.30
2022-08-22T07:08:40.130Z,82.63
2022-08-22T07:09:25.063Z,91.15
2022-08-22T07:09:57.752Z,87.90
2022-08-22T07:10:32.546Z,64.78
2022-08-22T07:11:14.909Z,52.60
2022-08-22T07:11:50.095Z,73.47
2022-08-22T07:12:26.862Z,80.25
2022-08-22T07:13:04.582Z,72.53
2022-08-22T07:13:45.031Z,110.50
2022-08-22T07:14:25.576Z,77.80
2022-08-22T07:15:13.708Z,82.15
2022-08-22T07:15:53.771Z,70.45
2022-08-22T07:16:34.757Z,95.72
2022-08-22T07:17:09.315Z,115.18
2022-08-22T07:17:52.440Z,116.80
2022-08-22T07:18:27.698Z,80.70
2022-08-22T07:19:00.748Z,76.43
2022-08-22T07:19:39.673Z,115.88
2022-08-22T07:20:24.136Z,80.07
2022-08-22T07:20:59.477Z,124.30
2022-08-22T07:21:45.922Z,61.53
2022-08-22T07:22:24.376Z,108.50
2022-08-22T07:23:02.010Z,67.43
2022-08-22T07:23:38.360Z,74.60
2022-08-22T07:24:17.311Z,73.30
2022-08-22T07:24:59.886Z,86.85
2022-08-22T07:25:39.031Z,80.85
2022-08-22T07:26:21.835Z,104.13
2022-08-22T07:27:09.960Z,77.43
2022-08-22T07:27:53.761Z,68.90
2022-08-22T07:28:51.166Z,76.25
2022-08-22T07:29:41.046Z,138.77
2022-08-22T07:30:28.217Z,104.72
2022-08-22T07:31:07.222Z,95.78
2022-08-22T07:31:49.411Z,123.95
2022-08-22T07:32:28.206Z,104.97
2022-08-22T07:33:25.769Z,133.68
2022-08-22T07:34:11.917Z,97.25
2022-08-22T07:34:58.634Z,88.43
2022-08-22T07:35:35.790Z,111.72
2022-08-22T07:36:23.012Z,163.18
2022-08-22T07:37:05.781Z,77.65
2022-08-22T07:37:52.092Z,154.38
2022-08-22T07:38:42.838Z,135.23
2022-08-22T07:39:25.527Z,55.83
2022-08-22T07:40:10.358Z,118.75
2022-08-22T07:40:51.761Z,93.10
2022-08-22T07:41:34.738Z,80.05
2022-08-22T07:42:14.899Z,76.20
2022-08-22T07:42:54.770Z,92.00
2022-08-22T07:43:32.357Z,121.82
2022-08-22T07:44:16.411Z,165.18
2022-08-22T07:45:03.409Z,135.65
2022-08-22T07:45:43.305Z,95.35
2022-08-22T07:46:28.761Z,79.80
2022-08-22T07:47:09.747Z,98.45
2022-08-22T07:47:55.035Z,87.03
2022-08-22T07:48:33.992Z,124.35
2022-08-22T07:49:21.472Z,123.40
2022-08-22T07:50:02.933Z,148.93
2022-08-22T07:50:37.626Z,129.38
2022-08-22T07:51:14.984Z,139.38
2022-08-22T07:51:54.841Z,121.90
2022-08-22T07:52:40.746Z,125.20
2022-08-22T07:53:26.685Z,84.57
2022-08-22T07:54:04.756Z,96.75
2022-08-22T07:54:41.679Z,88.63
2022-08-22T07:55:22.702Z,89.45
2022-08-22T07:55:56.683Z,102.47
2022-08-22T07:56:35.205Z,86.80
2022-08-22T07:57:12.934Z,120.07
2022-08-22T07:57:48.439Z,123.18
2022-08-22T07:58:27.110Z,107.28
2022-08-22T07:59:12.985Z,68.38
2022-08-22T07:59:51.058Z,77.10
2022-08-22T08:00:27.243Z,91.03
2022-08-22T08:01:00.426Z,115.43
2022-08-22T08:01:36.373Z,90.47
2022-08-22T08:02:12.784Z,84.05
2022-08-22T08:02:48.214Z,71.50
2022-08-22T08:03:25.804Z,88.63
2022-08-22T08:04:01.656Z,135.10
2022-08-22T08:04:40.587Z,89.10
2022-08-22T08:05:14.756Z,97.30
2022-08-22T08:05:47.541Z,45.53
2022-08-22T08:06:24.743Z,93.03
2022-08-22T08:06:59.576Z,50.63
2022-08-22T08:07:35.754Z,66.03
2022-08-22T08:08:13.860Z,67.97
2022-08-22T08:08:48.283Z,56.05
2022-08-22T08:09:24.287Z,61.42
2022-08-22T08:10:01.665Z,66.75
2022-08-22T08:10:37.469Z,66.63
2022-08-22T08:11:16.125Z,99.95
2022-08-22T08:11:53.330Z,93.25
2022-08-22T08:12:33.090Z,66.60
2022-08-22T08:13:09.706Z,65.60
2022-08-22T08:13:47.945Z,85.43
2022-08-22T08:14:22.349Z,56.75
2022-08-22T08:14:56.807Z,78.10
2022-08-22T08:15:39.405Z,56.13
2022-08-22T08:16:18.001Z,81.68
2022-08-22T08:17:00.648Z,50.75
2022-08-22T08:17:35.562Z,59.58
2022-08-22T08:18:19.425Z,64.90
2022-08-22T08:18:56.778Z,54.22
2022-08-22T08:19:32.933Z,45.70
2022-08-22T08:20:09.496Z,83.40
2022-08-22T08:20:44.445Z,74.95
2022-08-22T08:21:26.254Z,56.33
2022-08-22T08:22:02.282Z,64.57
2022-08-22T08:22:35.639Z,65.20
2022-08-22T08:23:10.685Z,82.65
2022-08-22T08:23:49.598Z,82.07
2022-08-22T08:24:26.130Z,80.35
2022-08-22T08:25:03.316Z,65.25
2022-08-22T08:25:53.875Z,71.32
2022-08-22T08:26:35.014Z,72.00
2022-08-22T08:27:31.638Z,49.00
2022-08-22T08:28:20.036Z,60.38
2022-08-22T08:28:57.379Z,75.10
2022-08-22T08:29:31.040Z,58.13
2022-08-22T08:30:15.443Z,69.00
2022-08-22T08:30:59.707Z,84.05
2022-08-22T08:31:43.145Z,71.93
2022-08-22T08:32:17.680Z,66.15
2022-08-22T08:32:57.459Z,98.03
2022-08-22T08:33:53.659Z,71.82
2022-08-22T08:34:30.206Z,72.13
2022-08-22T08:35:09.895Z,95.38
2022-08-22T08:36:02.550Z,66.63
2022-08-22T08:36:42.298Z,87.53
2022-08-22T08:37:23.064Z,63.92
2022-08-22T08:38:00.933Z,75.75
2022-08-22T08:38:40.755Z,74.93
2022-08-22T08:39:22.563Z,80.47
2022-08-22T08:39:58.270Z,93.85
2022-08-22T08:40:55.549Z,117.38
2022-08-22T08:42:14.638Z,104.55
2022-08-22T08:43:21.193Z,89.95
2022-08-22T08:44:08.729Z,55.55
2022-08-22T08:45:16.097Z,114.22
2022-08-22T08:46:09.467Z,65.50
2022-08-22T08:47:04.703Z,71.65
2022-08-22T08:48:03.093Z,69.13
2022-08-22T08:49:09.700Z,53.58
2022-08-22T08:50:09.614Z,74.50
2022-08-22T08:51:11.029Z,106.10
2022-08-22T08:51:59.501Z,72.05
2022-08-22T08:52:52.854Z,68.18
2022-08-22T08:54:09.205Z,117.70
2022-08-22T08:55:00.354Z,76.30
2022-08-22T08:55:51.271Z,87.03
2022-08-22T08:56:32.579Z,62.97
2022-08-22T08:57:18.310Z,70.03
2022-08-22T08:59:09.956Z,70.28
2022-08-22T08:59:51.634Z,98.05
2022-08-22T09:00:35.646Z,86.45
2022-08-22T09:01:36.503Z,63.28
2022-08-22T09:02:34.782Z,62.95
2022-08-22T09:04:42.631Z,71.10
2022-08-22T09:05:41.715Z,75.40
2022-08-22T09:06:42.559Z,126.22
2022-08-22T09:07:37.833Z,114.80
2022-08-22T09:08:43.206Z,52.97
2022-08-22T09:09:33.097Z,77.10
2022-08-22T09:10:29.437Z,142.25
2022-08-22T09:11:38.480Z,56.97
2022-08-22T09:12:30.622Z,98.65
2022-08-22T09:13:34.575Z,68.15
2022-08-22T09:14:29.675Z,87.20
2022-08-22T09:15:14.430Z,47.53
2022-08-22T09:16:04.700Z,82.88
2022-08-22T09:16:58.951Z,66.38
2022-08-22T09:18:13.515Z,54.05
2022-08-22T09:19:24.737Z,72.15
2022-08-22T09:20:23.226Z,89.53
2022-08-22T09:21:42.328Z,89.10
2022-08-22T09:22:50.660Z,85.65
2022-08-22T09:23:56.004Z,87.30
2022-08-22T09:25:06.425Z,95.18
2022-08-22T09:25:44.903Z,82.03
2022-08-22T09:26:29.334Z,73.03
2022-08-22T09:27:08.721Z,46.03
2022-08-22T09:27:49.303Z,81.88
2022-08-22T09:28:32.469Z,97.65
2022-08-22T09:29:24.892Z,54.92
2022-08-22T09:30:05.606Z,111.75
2022-08-22T09:30:54.107Z,138.50
2022-08-22T09:31:47.818Z,66.63